Colorado AWOS List, Phone Numbers, Maps

USA |  
| Search AWOS

Rocky Mountain States: Montana | Wyoming | Colorado | New Mexico

Complete weather reports: Colorado

Legend: KFNL = METAR available Follow your local AWOS on AV Mobile = METAR available on AV Mobile
Station Colorado Location Frequency Phone
KAKOFAA ID AKO, ASOS, KAKO 011453Z AUTO 25005KT 10SM CLR 21/13 A3025 RMK AO2 SLP193 T02110128 53008 Follow KAKO on AV Mobile COLORADO PLAINS REGIONAL 135.475 970-345-2320
KALSFAA ID ALS, ASOS, KALS 011452Z AUTO 10005KT 10SM BKN095 15/11 A3040 Follow KALS on AV Mobile SAN LUIS VALLEY REGIONAL 135.175 719-589-5669
KASEFAA ID ASE, ASOS, KASE 011453Z 35004KT 10SM OVC100 13/11 A3039 Follow KASE on AV Mobile ASPEN-PITKIN COUNTY AIRPORT 120.400 970-925-9168
KBKFFAA ID BKF, KBKF 011458Z 27004KT 10SM FEW070 SCT110 SCT220 19/13 A3032 Follow KBKF on AV Mobile Aurora, Buckley Air Force Base Airport
K7BMFAA ID 7BM, AWOS-3, K7BM 011534Z AUTO 00000KT 10SM OVC002 12/10 A3055 RMK AO2 Follow K7BM on AV Mobile Cottonwood Pass 132.050 303-512-4919
KBDUFAA ID BDU, AWOS-3, KBDU 011535Z AUTO 00000KT 10SM CLR 20/09 A3029 RMK AO2 Follow KBDU on AV Mobile Boulder Municipal Airport 118.825 303-541-9540
KAEJFAA ID AEJ, AWOS-3, KAEJ 011535Z AUTO 00000KT 10SM SCT041 BKN080 OVC110 13/10 A3044 RMK AO2 T01340101 Follow KAEJ on AV Mobile Central Colorado Regional Airport 132.925 719-395-2599
KITRFAA ID ITR, ASOS, KITR 011453Z AUTO 25006KT 10SM CLR 24/11 A3024 RMK AO2 SLP188 T02440106 51009 Follow KITR on AV Mobile Kit Carson County Airport 135.225 719-346-7036
K1V6FAA ID 1V6, AWOS-3, K1V6 011530Z AUTO 00000KT 10SM SCT110 20/12 A3031 RMK AO2 Follow K1V6 on AV Mobile CANON CITY 120.025
KAFFFAA ID AFF, KAFF 011458Z AUTO 36005KT 10SM FEW075 14/11 A3037 RMK AO2 SLP221 T01410114 52007 Follow KAFF on AV Mobile Air Force Academy
KCOSFAA ID COS, ASOS, KCOS 011454Z 06003KT 10SM FEW050 BKN090 BKN180 17/13 A3036 Follow KCOS on AV Mobile COLORADO SPRINGS MUNI 125.000 719-637-9696
KFLYFAA ID FLY, AWOS-3PT, KFLY 011535Z AUTO 14003KT 10SM SCT075 18/10 A3039 RMK AO2 T01750099 Follow KFLY on AV Mobile Meadowlake Airport, Peyton, CO 118.450 719-683-5371
KCCUFAA ID CCU, AWOS-3, KCCU 011536Z AUTO 19011KT 10SM BKN021 BKN033 OVC090 08/05 A3066 RMK AO2 Follow KCCU on AV Mobile Copper Mountain, Red Cliff Pass 118.075 970-968-1715
KCEZFAA ID CEZ, ASOS, KCEZ 011453Z AUTO 04003KT 10SM FEW110 19/13 A3028 RMK AO2 SLP181 T01890128 51010 Follow KCEZ on AV Mobile CORTEZ MONTEZUMA COUNTY AIRPORT 135.625 970-564-0193
KCAGFAA ID CAG, ASOS, KCAG 011453Z AUTO 25005KT 10SM OVC100 14/11 A3029 Follow KCAG on AV Mobile CRAIG MOFFAT AIRPORT 135.425 970-824-2373
KAJZFAA ID AJZ, AWOS-3, KAJZ 011535Z AUTO 00000KT 10SM OVC100 24/10 A3025 RMK AO2 T02390104 Follow KAJZ on AV Mobile Blake Field Airport 134.000 970-874-3251
KDNRICAO ID KDNR Denver / Stapleton International, Co.
KAPAFAA ID APA, ASOS, KAPA 011453Z 00000KT 10SM SCT080 BKN140 BKN220 19/11 A3032 RMK AO2 SLP205 T01940106 51008 Follow KAPA on AV Mobile DENVER CENTENNIAL AIRPORT 120.300 303-706-9098
KDENFAA ID DEN, ASOS, KDEN 011453Z 22006KT 10SM FEW080 SCT120 SCT200 20/12 A3029 Follow KDEN on AV Mobile DENVER INTERNATIONAL AIRPORT 125.600 303-342-0838
KFTGFAA ID FTG, AWOS-3, KFTG 011453Z 22005KT 30SM SCT120 BKN200 22/13 A3031 Follow KFTG on AV Mobile Front Range Airport 119.025 303-261-9104
KBJCFAA ID BJC, AWOS-3, KBJC 011453Z 00000KT 40SM FEW055 SCT120 BKN200 19/09 A3031 Follow KBJC on AV Mobile Rocky Mountain Metro Airport 126.250 720-887-8067
K4V5ICAO ID K4V5 Durango Aviation Weather Reporting Station
KDROFAA ID DRO, ASOS, KDRO 011453Z AUTO 09003KT 10SM OVC110 18/11 A3034 RMK AO2 SLP195 T01780106 51008 Follow KDRO on AV Mobile DURANGO-LA PLATA COUNTY AIRPORT 120.625 970-259-3579
KEGEFAA ID EGE, AWOS-3, KEGE 011455Z 00000KT 10SM VCSH FEW055 BKN090 15/12 A3038 Follow KEGE on AV Mobile Eagle County Regional 135.575 970-524-7386
CO90FAA ID CO90, ASOS, KAJZ 011550Z AUTO 00000KT 10SM OVC100 24/11 A3025 RMK AO2 T02400106 Follow  on AV Mobile USAF Academy Bullseye Aux Airstrip 118.325 719-683-3346
K0COFAA ID 0CO, AWOS-3, K0CO 011534Z AUTO 12011G14KT 3SM BR BKN001 BKN007 OVC026 03/03 A3070 RMK AO2 Follow K0CO on AV Mobile EMPIRE 134.325
KEIKFAA ID EIK, AWOS-3, KEIK 011535Z AUTO 02003KT 10SM CLR 21/10 A3028 RMK AO2 T02120101 Follow KEIK on AV Mobile Erie Municipal Airport 133.825 303-604-4339
KFCSFAA ID FCS, KFCS 011458Z AUTO 36006KT 10SM BKN095 17/12 A3034 RMK AO2 SLP237 T01690118 52008 Follow KFCS on AV Mobile Fort Carson
KFCLICAO ID KFCL Fort Collins Supplementary Aviation Weather Reporting Station
KFNLFAA ID FNL, AWOS-3, KFNL 011535Z AUTO 24003KT 10SM CLR 21/10 A3029 RMK AO1 Follow KFNL on AV Mobile Fort Collins/Loveland, Fort Collins-Loveland Municipal Airport 135.075 970-669-9187
KFMMFAA ID FMM, AWOS-3, KFMM 011535Z AUTO 24004KT 10SM CLR 23/12 A3026 RMK AO2 T02250118 PWINO Follow KFMM on AV Mobile Fort Morgan Municipal Airport 132.950 970-867-4823
KGNBFAA ID GNB, AWOS-1 Granby-Grand County Airport 119.925 970-887-1803
KGJTFAA ID GJT, ASOS, KGJT 011453Z 29003KT 10SM CLR 21/13 A3021 Follow KGJT on AV Mobile GRAND JUNCTION WALKER FIELD 118.550 970-245-7881
KGXYFAA ID GXY, AWOS-3, KGXY 011535Z AUTO 26006KT 10SM FEW002 21/12 A3027 RMK AO1 Follow KGXY on AV Mobile Greeley, Greeley-Weld County Airport 135.175 970-352-3511
K2V9ICAO ID K2V9 Gunnison Aviation Weather Reporting Station
KGUCFAA ID GUC, AWOS-3, KGUC 011535Z AUTO 00000KT 9SM FEW026 SCT035 BKN055 12/09 A3046 RMK AO1 Follow KGUC on AV Mobile Gunnison, Gunnison-Crested Butte Regional Airport 135.075 970-641-3240
KHDNFAA ID HDN, AWOS-3, KHDN 011535Z AUTO 00000KT 10SM CLR 19/08 A3031 RMK AO1 Follow KHDN on AV Mobile Hayden, Yampa Valley Airport 119.275 970-276-3690
KHEQFAA ID HEQ, AWOS-3, KHEQ 011535Z AUTO 00000KT 10SM CLR 26/13 A3020 RMK AO2 Follow KHEQ on AV Mobile Holyoke Airport 119.275 970-854-3679
K20VFAA ID 20V, AWOS-3, K20V 011537Z AUTO 00000KT 10SM OVC070 15/05 A3041 RMK AO2 Follow K20V on AV Mobile Kremmling, Mc Elroy Airfield 118.425 970-724-9659
KLHXFAA ID LHX, ASOS, KLHX 011453Z AUTO 00000KT 10SM CLR 21/12 A3025 RMK AO2 SLP191 T02060117 53011 Follow KLHX on AV Mobile LA JUNTA MUNICIPAL AIRPORT 135.525 719-384-5961
KVTPFAA ID VTP, AWOS-3, KVTP 011528Z AUTO 00000KT 1/4SM FG OVC001 10/08 A3056 RMK AO2 LTG DSNT S Follow KVTP on AV Mobile La Veta Mountain, La Veta Pass 119.925 719-587-3120
KLAAFAA ID LAA, ASOS, KLAA 011453Z AUTO 00000KT 6SM HZ CLR 21/14 A3021 RMK AO2 SLP190 T02060139 51009 Follow KLAA on AV Mobile LAMAR MUNICIPAL AIRPORT 135.625 719-336-3854
KLXVFAA ID LXV, ASOS, KLXV 011509Z AUTO 11003KT 10SM FEW006 OVC032 09/07 Follow KLXV on AV Mobile LEADVILLE LAKE CO 118.375 719-486-2735
KLICFAA ID LIC, ASOS, KLIC 011455Z AUTO 00000KT 10SM CLR 19/13 A3030 RMK AO2 SLP199 T01940133 51008 Follow KLIC on AV Mobile LIMON MUNICIPAL AIRPORT 121.125 719-775-0515
KLMOFAA ID LMO, AWOS-3, KLMO 011534Z AUTO 00000KT 10SM CLR 23/10 A3029 RMK AO2 T02300098 Follow KLMO on AV Mobile Vance Brand Airport 120.000 303-684-7545
KEEOFAA ID EEO, ASOS, KEEO 011453Z AUTO 00000KT 10SM SCT080 15/11 A3032 RMK AO2 LTG DSNT E SLP188 60000 T01500111 51015 Follow KEEO on AV Mobile MEEKER AIRPORT 135.525 970-878-5036
KMYPFAA ID MYP, AWOS-3, KMYP 011542Z AUTO 29006KT M1/4SM FG OVC002 06/05 A3076 RMK AO2 Follow KMYP on AV Mobile Salida Mountain, Monarch Pass 124.175 719-539-4436
KMTJFAA ID MTJ, ASOS, KMTJ 011453Z AUTO VRB03KT 10SM SCT095 21/11 A3029 RMK AO2 SLP176 60000 T02060111 51015 Follow KMTJ on AV Mobile MONTROSE REGIONAL AIRPORT 135.225 970-249-1534
KMNHFAA ID MNH, AWOS-3, KMNH 011533Z AUTO 17007KT 10SM CLR 18/04 A3038 RMK AO2 Follow KMNH on AV Mobile Elbert Mountain, Monument Pass 134.375 303-648-3479
K3MWFAA ID 3MW, AWOS-3, K3MW 211630Z AUTO RMK AO2 TSNO PWINO Follow K3MW on AV Mobile Mount Werner 127.125 970-871-5640
KCRVICAO ID KCRV Nederland Mountain, Corona Pass
KAIBFAA ID AIB, AWOS-3, KAIB 011535Z AUTO 10004KT 10SM CLR 21/11 A3032 RMK AO2 Follow KAIB on AV Mobile Hopkins Field Airport 132.525 970-864-2325
KPSOFAA ID PSO, AWOS-3, KPSO 011535Z AUTO 00000KT 10SM SCT080 OVC100 15/13 A3042 RMK AO2 T01450125 Follow KPSO on AV Mobile Stevens Field Airport 127.175 970-731-0365
KPEFICAO ID KPEF Peterson Air Force Base
KPUXICAO ID KPUX Pueblo NEXRAD
KPUBFAA ID PUB, ASOS, KPUB 011453Z 00000KT 10SM FEW100 21/15 A3027 Follow KPUB on AV Mobile PUEBLO MEMORIAL AIRPORT 125.250 719-948-2803
K1V1ICAO ID K1V1 Rifle Aviation Weather Reporting Station
KRILFAA ID RIL, ASOS, KRIL 011453Z AUTO VRB03KT 10SM CLR 21/11 A3025 RMK AO2 SLP173 T02110106 51010 Follow KRIL on AV Mobile RIFLE GARFIELD COUNTY RGNL 135.275 970-625-2206
K04VFAA ID 04V, AWOS-3, K04V 011530Z AUTO 21003KT 10SM SCT034 BKN048 OVC075 15/10 A3043 RMK AO2 PWINO Follow K04V on AV Mobile Saguache, Saguache Municipal Airport 118.625 719-655-2229
KS29ICAO ID KS29 Salida
KANKFAA ID ANK, AWOS-3, KANK 011535Z AUTO 00000KT 10SM SCT043 SCT049 BKN060 16/12 A3048 RMK AO1 T01600121 Follow KANK on AV Mobile Harriet Alexander Field Airport 133.850 719-539-5268
KSPDICAO ID KSPD, KSPD 011456Z AUTO 25008KT 22/13 A3025 RMK AO1 SLP186 T02220128 51006 Follow KSPD on AV Mobile SPRINGFIELD COMANCHE NATL
KSBSFAA ID SBS, AWOS-3, KSBS 011534Z AUTO 00000KT 10SM CLR 18/09 A3033 RMK AO1 T01750090 Follow KSBS on AV Mobile Steamboat Springs 118.325 970-879-7794
KSTKFAA ID STK, AWOS-3, KSTK 011530Z AUTO 21004KT 10SM CLR 23/17 A3021 RMK AO2 Follow KSTK on AV Mobile Sterling Municipal Airport 118.525 970-526-3009
K5SMFAA ID 5SM, AWOS-3, K5SM 011536Z AUTO 00000KT 10SM BKN016 BKN027 BKN034 12/09 A3059 RMK AO2 LTG DSNT N Follow K5SM on AV Mobile Sunlight 126.075 970-384-3380
KTEXFAA ID TEX, AWOS-3, KTEX 011516Z AUTO 00000KT 10SM -DZ SCT048 BKN060 OVC070 12/11 A3049 RMK AO2 LTG DSNT N Follow KTEX on AV Mobile Telluride, Telluride Regional Airport 118.325 970-728-1534
KTADFAA ID TAD, ASOS, KTAD 011454Z AUTO 30005KT 10SM OVC110 18/13 A3032 RMK AO2 SLP202 T01780128 53005 Follow KTAD on AV Mobile Trinidad, Perry Stokes Airport 119.025 719-845-1156
K33VFAA ID 33V, AWOS-3, K33V 011535Z AUTO 00000KT 10SM CLR 13/03 A3042 RMK AO2 Follow K33V on AV Mobile WALDEN 118.625 970-723-4513
4V1FAA ID 4V1, AWOS-3, KAJZ 011550Z AUTO 00000KT 10SM OVC100 24/11 A3025 RMK AO2 T02400106 Follow  on AV Mobile Spanish Peaks Airfield 123.600 719-738-1053
K4BMFAA ID 4BM, AWOS-3, K4BM 011532Z AUTO 21005KT 10SM OVC006 08/06 A3065 RMK AO2 Follow K4BM on AV Mobile Wilkerson Pass 132.3 303-512-4418
KC96ICAO ID KC96 Winter Park Resort
KCPWFAA ID CPW, AWOS-3, KCPW 182241Z AUTO 26014G21KT 7SM TSRA SCT014 BKN027 OVC037 02/01 A3034 RMK AO2 P0001 LTG DSNT ALQS Follow KCPW on AV Mobile Pagosa Springs, Wolf Creek Pass 121.125 970-264-2180
K2V5FAA ID 2V5, AWOS-3, K2V5 011535Z AUTO 00000KT 10SM 26/12 A3020 RMK AO2 T02640119 Follow K2V5 on AV Mobile Wray Municipal Airport 118.250 970-332-5930

Click on the AV Mobile icon AV Mobile icon by any station to follow that AWOS feed on AirportView.net Mobile.

Legend: Commercial service airport with AWOS Commercial Airport AWOSNon-Commercial service airport with AWOS Non-Commercial Airport AWOS
Airport AWOS - Click symbol for weather report Fort Morgan Municipal Airport KFMM 011535Z AUTO 24004KT 10SM CLR 23/12 A3026 RMK AO2 T02250118 PWINO Hopkins Field Airport KAIB 011535Z AUTO 10004KT 10SM CLR 21/11 A3032 RMK AO2 Telluride, Telluride Regional Airport KTEX 011516Z AUTO 00000KT 10SM -DZ SCT048 BKN060 OVC070 12/11 A3049 RMK AO2 LTG DSNT N Greeley, Greeley-Weld County Airport KGXY 011535Z AUTO 26006KT 10SM FEW002 21/12 A3027 RMK AO1 Front Range Airport KFTG 011453Z 22005KT 30SM SCT120 BKN200 22/13 A3031 Rocky Mountain Metro Airport KBJC 011453Z 00000KT 40SM FEW055 SCT120 BKN200 19/09 A3031 DENVER CENTENNIAL AIRPORT KAPA 011453Z 00000KT 10SM SCT080 BKN140 BKN220 19/11 A3032 RMK AO2 SLP205 T01940106 51008 DENVER INTERNATIONAL AIRPORT KDEN 011453Z 22006KT 10SM FEW080 SCT120 SCT200 20/12 A3029 Fort Collins/Loveland, Fort Collins-Loveland Municipal Airport KFNL 011535Z AUTO 24003KT 10SM CLR 21/10 A3029 RMK AO1 Boulder Municipal Airport KBDU 011535Z AUTO 00000KT 10SM CLR 20/09 A3029 RMK AO2 Vance Brand Airport KLMO 011534Z AUTO 00000KT 10SM CLR 23/10 A3029 RMK AO2 T02300098 Sterling Municipal Airport KSTK 011530Z AUTO 21004KT 10SM CLR 23/17 A3021 RMK AO2 Holyoke Airport KHEQ 011535Z AUTO 00000KT 10SM CLR 26/13 A3020 RMK AO2 COLORADO PLAINS REGIONAL KAKO 011453Z AUTO 25005KT 10SM CLR 21/13 A3025 RMK AO2 SLP193 T02110128 53008 Kit Carson County Airport KITR 011453Z AUTO 25006KT 10SM CLR 24/11 A3024 RMK AO2 SLP188 T02440106 51009 LIMON MUNICIPAL AIRPORT KLIC 011455Z AUTO 00000KT 10SM CLR 19/13 A3030 RMK AO2 SLP199 T01940133 51008 COLORADO SPRINGS MUNI KCOS 011454Z 06003KT 10SM FEW050 BKN090 BKN180 17/13 A3036 LAMAR MUNICIPAL AIRPORT KLAA 011453Z AUTO 00000KT 6SM HZ CLR 21/14 A3021 RMK AO2 SLP190 T02060139 51009 LA JUNTA MUNICIPAL AIRPORT KLHX 011453Z AUTO 00000KT 10SM CLR 21/12 A3025 RMK AO2 SLP191 T02060117 53011 Trinidad, Perry Stokes Airport KTAD 011454Z AUTO 30005KT 10SM OVC110 18/13 A3032 RMK AO2 SLP202 T01780128 53005 PUEBLO MEMORIAL AIRPORT KPUB 011453Z 00000KT 10SM FEW100 21/15 A3027 CANON CITY 1V6 SAN LUIS VALLEY REGIONAL KALS 011452Z AUTO 10005KT 10SM BKN095 15/11 A3040 Saguache, Saguache Municipal Airport K04V 011530Z AUTO 21003KT 10SM SCT034 BKN048 OVC075 15/10 A3043 RMK AO2 PWINO Granby-Grand County Airport KGNB WALDEN 33V Steamboat Springs KSBS 011534Z AUTO 00000KT 10SM CLR 18/09 A3033 RMK AO1 T01750090 Hayden, Yampa Valley Airport KHDN 011535Z AUTO 00000KT 10SM CLR 19/08 A3031 RMK AO1 Kremmling, Mc Elroy Airfield K20V 011537Z AUTO 00000KT 10SM OVC070 15/05 A3041 RMK AO2 LEADVILLE LAKE CO KLXV 011509Z AUTO 11003KT 10SM FEW006 OVC032 09/07 Eagle County Regional KEGE 011455Z 00000KT 10SM VCSH FEW055 BKN090 15/12 A3038 CRAIG MOFFAT AIRPORT KCAG 011453Z AUTO 25005KT 10SM OVC100 14/11 A3029 MEEKER AIRPORT KEEO 011453Z AUTO 00000KT 10SM SCT080 15/11 A3032 RMK AO2 LTG DSNT E SLP188 60000 T01500111 51015 ASPEN-PITKIN COUNTY AIRPORT KASE 011453Z 35004KT 10SM OVC100 13/11 A3039 Gunnison, Gunnison-Crested Butte Regional Airport KGUC 011535Z AUTO 00000KT 9SM FEW026 SCT035 BKN055 12/09 A3046 RMK AO1 DURANGO-LA PLATA COUNTY AIRPORT  KDRO 011453Z AUTO 09003KT 10SM OVC110 18/11 A3034 RMK AO2 SLP195 T01780106 51008 Stevens Field Airport KPSO 011535Z AUTO 00000KT 10SM SCT080 OVC100 15/13 A3042 RMK AO2 T01450125 CORTEZ MONTEZUMA COUNTY AIRPORT  KCEZ 011453Z AUTO 04003KT 10SM FEW110 19/13 A3028 RMK AO2 SLP181 T01890128 51010 MONTROSE REGIONAL AIRPORT KMTJ 011453Z AUTO VRB03KT 10SM SCT095 21/11 A3029 RMK AO2 SLP176 60000 T02060111 51015 RIFLE GARFIELD COUNTY RGNL KRIL 011453Z AUTO VRB03KT 10SM CLR 21/11 A3025 RMK AO2 SLP173 T02110106 51010 GRAND JUNCTION WALKER FIELD KGJT 011453Z 29003KT 10SM CLR 21/13 A3021 Blake Field Airport KAJZ 011535Z AUTO 00000KT 10SM OVC100 24/10 A3025 RMK AO2 T02390104 Central Colorado Regional Airport KAEJ 011535Z AUTO 00000KT 10SM SCT041 BKN080 OVC110 13/10 A3044 RMK AO2 T01340101 Harriet Alexander Field Airport KANK 011535Z AUTO 00000KT 10SM SCT043 SCT049 BKN060 16/12 A3048 RMK AO1 T01600121 Erie Municipal Airport KEIK 011535Z AUTO 02003KT 10SM CLR 21/10 A3028 RMK AO2 T02120101 Wray Municipal Airport K2V5 011535Z AUTO 00000KT 10SM 26/12 A3020 RMK AO2 T02640119
Legend: High Mountain AWOS Mountain Pass AWOS
Mountain Pass AWOS - Click symbol for weather report Pagosa Springs, Wolf Creek Pass KCPW 182241Z AUTO 26014G21KT 7SM TSRA SCT014 BKN027 OVC037 02/01 A3034 RMK AO2 P0001 LTG DSNT ALQS Saguache, Saguache Municipal Airport K04V 011530Z AUTO 21003KT 10SM SCT034 BKN048 OVC075 15/10 A3043 RMK AO2 PWINO Kremmling, Mc Elroy Airfield K20V 011537Z AUTO 00000KT 10SM OVC070 15/05 A3041 RMK AO2 La Veta Mountain, La Veta Pass KVTP 011528Z AUTO 00000KT 1/4SM FG OVC001 10/08 A3056 RMK AO2 LTG DSNT S Salida Mountain, Monarch Pass KMYP 011542Z AUTO 29006KT M1/4SM FG OVC002 06/05 A3076 RMK AO2 Cottonwood Pass K7BM 011534Z AUTO 00000KT 10SM OVC002 12/10 A3055 RMK AO2 Elbert Mountain, Monument Pass KMNH 011533Z AUTO 17007KT 10SM CLR 18/04 A3038 RMK AO2 Wilkerson Pass K4BM 011532Z AUTO 21005KT 10SM OVC006 08/06 A3065 RMK AO2 Copper Mountain, Red Cliff Pass KCCU 011536Z AUTO 19011KT 10SM BKN021 BKN033 OVC090 08/05 A3066 RMK AO2 EMPIRE 0CO Sunlight K5SM 011536Z AUTO 00000KT 10SM BKN016 BKN027 BKN034 12/09 A3059 RMK AO2 LTG DSNT N Mount Werner K3MW 211630Z AUTO RMK AO2 TSNO PWINO
Garmin aera 796 $1999 at Avionics Specialists LLC
Bose A20 Aviation Headsets $995 at Avionics Specialists LLC